sensor_id;sensor_type;location;lat;lon;timestamp;temperature;humidity
10312;DHT22;5201;48.776;9.128;2022-12-11T00:00:45;1.30;99.90
10312;DHT22;5201;48.776;9.128;2022-12-11T00:03:10;1.10;99.90
10312;DHT22;5201;48.776;9.128;2022-12-11T00:05:39;1.30;99.90
10312;DHT22;5201;48.776;9.128;2022-12-11T00:08:04;1.40;99.90
10312;DHT22;5201;48.776;9.128;2022-12-11T00:10:30;1.40;99.90
10312;DHT22;5201;48.776;9.128;2022-12-11T00:12:56;1.40;99.90
10312;DHT22;5201;48.776;9.128;2022-12-11T00:15:21;1.40;99.90
10312;DHT22;5201;48.776;9.128;2022-12-11T00:17:47;1.50;99.90
10312;DHT22;5201;48.776;9.128;2022-12-11T00:20:13;1.10;99.90
10312;DHT22;5201;48.776;9.128;2022-12-11T00:22:38;0.80;99.90
10312;DHT22;5201;48.776;9.128;2022-12-11T00:25:04;0.80;99.90
10312;DHT22;5201;48.776;9.128;2022-12-11T00:27:30;0.80;99.90
10312;DHT22;5201;48.776;9.128;2022-12-11T00:29:56;0.60;99.90
10312;DHT22;5201;48.776;9.128;2022-12-11T00:32:21;0.50;99.90
10312;DHT22;5201;48.776;9.128;2022-12-11T00:34:47;0.30;99.90
10312;DHT22;5201;48.776;9.128;2022-12-11T00:37:13;0.30;99.90
10312;DHT22;5201;48.776;9.128;2022-12-11T00:39:38;0.00;99.90
10312;DHT22;5201;48.776;9.128;2022-12-11T00:42:05;0.00;99.90
10312;DHT22;5201;48.776;9.128;2022-12-11T00:44:32;0.10;99.90
10312;DHT22;5201;48.776;9.128;2022-12-11T00:46:57;0.40;99.90
10312;DHT22;5201;48.776;9.128;2022-12-11T00:49:23;0.80;99.90
10312;DHT22;5201;48.776;9.128;2022-12-11T00:51:48;0.90;99.90
10312;DHT22;5201;48.776;9.128;2022-12-11T00:54:14;1.00;99.90
10312;DHT22;5201;48.776;9.128;2022-12-11T00:56:40;1.10;99.90
10312;DHT22;5201;48.776;9.128;2022-12-11T00:59:05;1.40;99.90
10312;DHT22;5201;48.776;9.128;2022-12-11T01:01:31;1.40;99.90
10312;DHT22;5201;48.776;9.128;2022-12-11T01:03:56;1.40;99.90
10312;DHT22;5201;48.776;9.128;2022-12-11T01:06:24;1.50;99.90
10312;DHT22;5201;48.776;9.128;2022-12-11T01:08:50;1.60;99.90
10312;DHT22;5201;48.776;9.128;2022-12-11T01:11:35;1.50;99.90
10312;DHT22;5201;48.776;9.128;2022-12-11T01:14:01;1.60;99.90
10312;DHT22;5201;48.776;9.128;2022-12-11T01:16:27;1.50;99.90
10312;DHT22;5201;48.776;9.128;2022-12-11T01:18:52;1.40;99.90
10312;DHT22;5201;48.776;9.128;2022-12-11T01:21:18;1.40;99.90
10312;DHT22;5201;48.776;9.128;2022-12-11T01:23:43;2.20;99.90
10312;DHT22;5201;48.776;9.128;2022-12-11T01:26:13;1.60;99.90
10312;DHT22;5201;48.776;9.128;2022-12-11T01:28:40;1.50;99.90
10312;DHT22;5201;48.776;9.128;2022-12-11T01:31:08;1.20;99.90
10312;DHT22;5201;48.776;9.128;2022-12-11T01:33:34;1.30;99.90
10312;DHT22;5201;48.776;9.128;2022-12-11T01:35:59;1.40;99.90
10312;DHT22;5201;48.776;9.128;2022-12-11T01:38:25;1.30;99.90
10312;DHT22;5201;48.776;9.128;2022-12-11T01:40:51;1.30;99.90
10312;DHT22;5201;48.776;9.128;2022-12-11T01:43:17;1.20;99.90
10312;DHT22;5201;48.776;9.128;2022-12-11T01:45:45;1.30;99.90
10312;DHT22;5201;48.776;9.128;2022-12-11T01:48:15;1.30;99.90
10312;DHT22;5201;48.776;9.128;2022-12-11T01:50:52;1.30;99.90
10312;DHT22;5201;48.776;9.128;2022-12-11T01:53:27;1.40;99.90
10312;DHT22;5201;48.776;9.128;2022-12-11T01:55:54;1.30;99.90
10312;DHT22;5201;48.776;9.128;2022-12-11T01:58:25;1.30;99.90
10312;DHT22;5201;48.776;9.128;2022-12-11T02:00:52;1.50;99.90
10312;DHT22;5201;48.776;9.128;2022-12-11T02:03:18;1.60;99.90
10312;DHT22;5201;48.776;9.128;2022-12-11T02:05:43;1.70;99.90
10312;DHT22;5201;48.776;9.128;2022-12-11T02:08:09;1.90;99.90
10312;DHT22;5201;48.776;9.128;2022-12-11T02:11:00;1.80;99.90
10312;DHT22;5201;48.776;9.128;2022-12-11T02:13:38;1.90;99.90
10312;DHT22;5201;48.776;9.128;2022-12-11T02:18:44;1.90;99.90
10312;DHT22;5201;48.776;9.128;2022-12-11T02:21:32;1.90;99.90
10312;DHT22;5201;48.776;9.128;2022-12-11T02:30:14;1.60;99.90
10312;DHT22;5201;48.776;9.128;2022-12-11T02:32:43;1.80;99.90
10312;DHT22;5201;48.776;9.128;2022-12-11T02:35:36;1.80;99.90
10312;DHT22;5201;48.776;9.128;2022-12-11T02:38:16;2.00;99.90
10312;DHT22;5201;48.776;9.128;2022-12-11T02:40:43;2.00;99.90
10312;DHT22;5201;48.776;9.128;2022-12-11T02:43:12;2.10;99.90
10312;DHT22;5201;48.776;9.128;2022-12-11T02:45:40;2.20;99.90
10312;DHT22;5201;48.776;9.128;2022-12-11T02:48:09;2.10;99.90
10312;DHT22;5201;48.776;9.128;2022-12-11T02:50:40;2.00;99.90
10312;DHT22;5201;48.776;9.128;2022-12-11T02:53:07;1.80;99.90
10312;DHT22;5201;48.776;9.128;2022-12-11T02:55:35;1.90;99.90
10312;DHT22;5201;48.776;9.128;2022-12-11T02:58:11;2.00;99.90
10312;DHT22;5201;48.776;9.128;2022-12-11T03:00:37;2.00;99.90
10312;DHT22;5201;48.776;9.128;2022-12-11T03:03:03;1.90;99.90
10312;DHT22;5201;48.776;9.128;2022-12-11T03:05:30;1.90;99.90
10312;DHT22;5201;48.776;9.128;2022-12-11T03:07:55;1.90;99.90
10312;DHT22;5201;48.776;9.128;2022-12-11T03:10:21;2.00;99.90
10312;DHT22;5201;48.776;9.128;2022-12-11T03:12:50;1.70;99.90
10312;DHT22;5201;48.776;9.128;2022-12-11T03:15:20;1.60;99.90
10312;DHT22;5201;48.776;9.128;2022-12-11T03:17:55;1.90;99.90
10312;DHT22;5201;48.776;9.128;2022-12-11T03:20:51;2.10;99.90
10312;DHT22;5201;48.776;9.128;2022-12-11T03:23:30;2.10;99.90
10312;DHT22;5201;48.776;9.128;2022-12-11T03:26:01;2.10;99.90
10312;DHT22;5201;48.776;9.128;2022-12-11T03:28:37;2.00;99.90
10312;DHT22;5201;48.776;9.128;2022-12-11T03:31:07;2.10;99.90
10312;DHT22;5201;48.776;9.128;2022-12-11T03:33:37;2.00;99.90
10312;DHT22;5201;48.776;9.128;2022-12-11T03:36:08;2.00;99.90
10312;DHT22;5201;48.776;9.128;2022-12-11T03:38:35;2.10;99.90
10312;DHT22;5201;48.776;9.128;2022-12-11T03:41:03;2.00;99.90
10312;DHT22;5201;48.776;9.128;2022-12-11T03:43:31;2.00;99.90
10312;DHT22;5201;48.776;9.128;2022-12-11T03:45:59;2.20;99.90
10312;DHT22;5201;48.776;9.128;2022-12-11T03:48:29;2.50;99.90
10312;DHT22;5201;48.776;9.128;2022-12-11T03:50:57;2.30;99.90
10312;DHT22;5201;48.776;9.128;2022-12-11T03:53:25;1.60;99.90
10312;DHT22;5201;48.776;9.128;2022-12-11T03:55:50;1.60;99.90
10312;DHT22;5201;48.776;9.128;2022-12-11T03:58:17;1.40;99.90
10312;DHT22;5201;48.776;9.128;2022-12-11T04:00:43;1.20;99.90
10312;DHT22;5201;48.776;9.128;2022-12-11T04:03:08;1.10;99.90
10312;DHT22;5201;48.776;9.128;2022-12-11T04:05:44;1.20;99.90
10312;DHT22;5201;48.776;9.128;2022-12-11T04:08:11;1.20;99.90
10312;DHT22;5201;48.776;9.128;2022-12-11T04:10:36;1.10;99.90
10312;DHT22;5201;48.776;9.128;2022-12-11T04:13:02;1.20;99.90
10312;DHT22;5201;48.776;9.128;2022-12-11T04:15:28;1.30;99.90
10312;DHT22;5201;48.776;9.128;2022-12-11T04:17:53;1.30;99.90
10312;DHT22;5201;48.776;9.128;2022-12-11T04:20:37;1.40;99.90
10312;DHT22;5201;48.776;9.128;2022-12-11T04:23:21;1.30;99.90
10312;DHT22;5201;48.776;9.128;2022-12-11T04:26:11;1.10;99.90
10312;DHT22;5201;48.776;9.128;2022-12-11T04:28:38;1.30;99.90
10312;DHT22;5201;48.776;9.128;2022-12-11T04:31:04;1.60;99.90
10312;DHT22;5201;48.776;9.128;2022-12-11T04:33:30;1.50;99.90
10312;DHT22;5201;48.776;9.128;2022-12-11T04:35:59;1.50;99.90
10312;DHT22;5201;48.776;9.128;2022-12-11T04:38:26;1.60;99.90
10312;DHT22;5201;48.776;9.128;2022-12-11T04:41:03;1.50;99.90
10312;DHT22;5201;48.776;9.128;2022-12-11T04:43:29;1.50;99.90
10312;DHT22;5201;48.776;9.128;2022-12-11T04:48:34;1.40;99.90
10312;DHT22;5201;48.776;9.128;2022-12-11T04:51:00;1.20;99.90
10312;DHT22;5201;48.776;9.128;2022-12-11T04:53:26;1.30;99.90
10312;DHT22;5201;48.776;9.128;2022-12-11T04:55:52;1.20;99.90
10312;DHT22;5201;48.776;9.128;2022-12-11T04:58:18;1.20;99.90
10312;DHT22;5201;48.776;9.128;2022-12-11T05:00:44;1.10;99.90
10312;DHT22;5201;48.776;9.128;2022-12-11T05:03:10;1.00;99.90
10312;DHT22;5201;48.776;9.128;2022-12-11T05:05:36;0.80;99.90
10312;DHT22;5201;48.776;9.128;2022-12-11T05:08:01;0.90;99.90
10312;DHT22;5201;48.776;9.128;2022-12-11T05:10:27;1.00;99.90
10312;DHT22;5201;48.776;9.128;2022-12-11T05:12:52;1.00;99.90
10312;DHT22;5201;48.776;9.128;2022-12-11T05:15:18;1.00;99.90
10312;DHT22;5201;48.776;9.128;2022-12-11T05:17:43;1.10;99.90
10312;DHT22;5201;48.776;9.128;2022-12-11T05:20:09;1.10;99.90
10312;DHT22;5201;48.776;9.128;2022-12-11T05:22:36;1.20;99.90
10312;DHT22;5201;48.776;9.128;2022-12-11T05:25:03;1.20;99.90
10312;DHT22;5201;48.776;9.128;2022-12-11T05:27:28;1.20;99.90
10312;DHT22;5201;48.776;9.128;2022-12-11T05:29:54;1.10;99.90
10312;DHT22;5201;48.776;9.128;2022-12-11T05:32:20;1.10;99.90
10312;DHT22;5201;48.776;9.128;2022-12-11T05:34:45;1.10;99.90
10312;DHT22;5201;48.776;9.128;2022-12-11T05:37:11;0.80;99.90
10312;DHT22;5201;48.776;9.128;2022-12-11T05:39:37;0.60;99.90
10312;DHT22;5201;48.776;9.128;2022-12-11T05:42:03;0.50;99.90
10312;DHT22;5201;48.776;9.128;2022-12-11T05:44:28;0.30;99.90
10312;DHT22;5201;48.776;9.128;2022-12-11T05:46:54;-0.20;99.90
10312;DHT22;5201;48.776;9.128;2022-12-11T05:49:20;-0.80;99.90
10312;DHT22;5201;48.776;9.128;2022-12-11T05:51:46;-1.40;99.90
10312;DHT22;5201;48.776;9.128;2022-12-11T05:54:12;-1.70;99.90
10312;DHT22;5201;48.776;9.128;2022-12-11T05:56:37;-1.60;99.90
10312;DHT22;5201;48.776;9.128;2022-12-11T05:59:04;-1.50;99.90
10312;DHT22;5201;48.776;9.128;2022-12-11T06:01:39;-1.00;99.90
10312;DHT22;5201;48.776;9.128;2022-12-11T06:04:06;-0.90;99.90
10312;DHT22;5201;48.776;9.128;2022-12-11T06:06:32;-1.10;99.90
10312;DHT22;5201;48.776;9.128;2022-12-11T06:08:59;-0.90;99.90
10312;DHT22;5201;48.776;9.128;2022-12-11T06:11:26;-0.50;99.90
10312;DHT22;5201;48.776;9.128;2022-12-11T06:13:53;0.20;99.90
10312;DHT22;5201;48.776;9.128;2022-12-11T06:16:19;0.20;99.90
10312;DHT22;5201;48.776;9.128;2022-12-11T06:18:45;0.30;99.90
10312;DHT22;5201;48.776;9.128;2022-12-11T06:21:14;0.10;99.90
10312;DHT22;5201;48.776;9.128;2022-12-11T06:23:41;0.70;99.90
10312;DHT22;5201;48.776;9.128;2022-12-11T06:26:07;1.20;99.90
10312;DHT22;5201;48.776;9.128;2022-12-11T06:28:33;1.30;99.90
10312;DHT22;5201;48.776;9.128;2022-12-11T06:30:59;1.20;99.90
10312;DHT22;5201;48.776;9.128;2022-12-11T06:33:25;3.60;99.90
10312;DHT22;5201;48.776;9.128;2022-12-11T06:35:51;0.80;99.90
10312;DHT22;5201;48.776;9.128;2022-12-11T06:38:17;1.00;99.90
10312;DHT22;5201;48.776;9.128;2022-12-11T06:40:43;0.60;99.90
10312;DHT22;5201;48.776;9.128;2022-12-11T06:43:09;0.40;99.90
10312;DHT22;5201;48.776;9.128;2022-12-11T06:45:37;0.10;99.90
10312;DHT22;5201;48.776;9.128;2022-12-11T06:48:03;0.00;99.90
10312;DHT22;5201;48.776;9.128;2022-12-11T06:50:29;0.00;99.90
10312;DHT22;5201;48.776;9.128;2022-12-11T06:52:55;0.10;99.90
10312;DHT22;5201;48.776;9.128;2022-12-11T06:55:21;0.60;99.90
10312;DHT22;5201;48.776;9.128;2022-12-11T06:57:47;0.70;99.90
10312;DHT22;5201;48.776;9.128;2022-12-11T07:00:14;0.70;99.90
10312;DHT22;5201;48.776;9.128;2022-12-11T07:02:39;0.70;99.90
10312;DHT22;5201;48.776;9.128;2022-12-11T07:05:05;0.80;99.90
10312;DHT22;5201;48.776;9.128;2022-12-11T07:07:31;0.40;99.90
10312;DHT22;5201;48.776;9.128;2022-12-11T07:09:57;0.10;99.90
10312;DHT22;5201;48.776;9.128;2022-12-11T07:12:22;-0.10;99.90
10312;DHT22;5201;48.776;9.128;2022-12-11T07:14:48;-0.30;99.90
10312;DHT22;5201;48.776;9.128;2022-12-11T07:17:13;-0.10;99.90
10312;DHT22;5201;48.776;9.128;2022-12-11T07:19:39;-0.30;99.90
10312;DHT22;5201;48.776;9.128;2022-12-11T07:22:05;-0.60;99.90
10312;DHT22;5201;48.776;9.128;2022-12-11T07:24:31;-0.50;99.90
10312;DHT22;5201;48.776;9.128;2022-12-11T07:26:57;-0.10;99.90
10312;DHT22;5201;48.776;9.128;2022-12-11T07:29:22;-0.50;99.90
10312;DHT22;5201;48.776;9.128;2022-12-11T07:31:48;-0.70;99.90
10312;DHT22;5201;48.776;9.128;2022-12-11T07:34:14;-0.50;99.90
10312;DHT22;5201;48.776;9.128;2022-12-11T07:36:41;-0.40;99.90
10312;DHT22;5201;48.776;9.128;2022-12-11T07:39:06;-0.20;99.90
10312;DHT22;5201;48.776;9.128;2022-12-11T07:41:33;-0.40;99.90
10312;DHT22;5201;48.776;9.128;2022-12-11T07:44:00;-0.30;99.90
10312;DHT22;5201;48.776;9.128;2022-12-11T07:46:27;-0.30;99.90
10312;DHT22;5201;48.776;9.128;2022-12-11T07:48:53;-0.30;99.90
10312;DHT22;5201;48.776;9.128;2022-12-11T07:51:28;-0.40;99.90
10312;DHT22;5201;48.776;9.128;2022-12-11T07:53:59;-0.40;99.90
10312;DHT22;5201;48.776;9.128;2022-12-11T07:56:27;-0.30;99.90
10312;DHT22;5201;48.776;9.128;2022-12-11T07:58:53;-0.20;99.90
10312;DHT22;5201;48.776;9.128;2022-12-11T08:01:25;-0.40;99.90
10312;DHT22;5201;48.776;9.128;2022-12-11T08:03:52;-0.40;99.90
10312;DHT22;5201;48.776;9.128;2022-12-11T08:06:18;-0.40;99.90
10312;DHT22;5201;48.776;9.128;2022-12-11T08:08:45;-0.50;99.90
10312;DHT22;5201;48.776;9.128;2022-12-11T08:11:12;-0.40;99.90
10312;DHT22;5201;48.776;9.128;2022-12-11T08:13:39;-0.40;99.90
10312;DHT22;5201;48.776;9.128;2022-12-11T08:16:07;-0.40;99.90
10312;DHT22;5201;48.776;9.128;2022-12-11T08:18:34;-0.30;99.90
10312;DHT22;5201;48.776;9.128;2022-12-11T08:21:05;-0.10;99.90
10312;DHT22;5201;48.776;9.128;2022-12-11T08:23:30;0.00;99.90
10312;DHT22;5201;48.776;9.128;2022-12-11T08:25:56;0.40;99.90
10312;DHT22;5201;48.776;9.128;2022-12-11T08:28:22;0.70;99.90
10312;DHT22;5201;48.776;9.128;2022-12-11T08:30:47;0.90;99.90
10312;DHT22;5201;48.776;9.128;2022-12-11T08:33:13;1.20;99.90
10312;DHT22;5201;48.776;9.128;2022-12-11T08:35:38;1.40;99.90
10312;DHT22;5201;48.776;9.128;2022-12-11T08:38:04;1.40;99.90
10312;DHT22;5201;48.776;9.128;2022-12-11T08:40:29;1.10;99.90
10312;DHT22;5201;48.776;9.128;2022-12-11T08:42:55;1.20;99.90
10312;DHT22;5201;48.776;9.128;2022-12-11T08:45:21;1.10;99.90
10312;DHT22;5201;48.776;9.128;2022-12-11T08:47:46;-1.50;99.90
10312;DHT22;5201;48.776;9.128;2022-12-11T08:50:12;0.70;99.90
10312;DHT22;5201;48.776;9.128;2022-12-11T08:52:37;0.80;99.90
10312;DHT22;5201;48.776;9.128;2022-12-11T08:55:03;1.00;99.90
10312;DHT22;5201;48.776;9.128;2022-12-11T08:57:29;1.00;99.90
10312;DHT22;5201;48.776;9.128;2022-12-11T08:59:54;0.80;99.90
10312;DHT22;5201;48.776;9.128;2022-12-11T09:02:20;0.70;99.90
10312;DHT22;5201;48.776;9.128;2022-12-11T09:04:45;0.80;99.90
10312;DHT22;5201;48.776;9.128;2022-12-11T09:07:11;0.90;99.90
10312;DHT22;5201;48.776;9.128;2022-12-11T09:09:37;1.60;99.90
10312;DHT22;5201;48.776;9.128;2022-12-11T09:12:03;1.70;99.90
10312;DHT22;5201;48.776;9.128;2022-12-11T09:14:29;1.90;99.90
10312;DHT22;5201;48.776;9.128;2022-12-11T09:16:54;1.90;99.90
10312;DHT22;5201;48.776;9.128;2022-12-11T09:19:20;1.90;99.90
10312;DHT22;5201;48.776;9.128;2022-12-11T09:21:46;1.80;99.90
10312;DHT22;5201;48.776;9.128;2022-12-11T09:24:12;1.70;99.90
10312;DHT22;5201;48.776;9.128;2022-12-11T09:26:38;1.70;99.90
10312;DHT22;5201;48.776;9.128;2022-12-11T09:29:05;1.70;99.90
10312;DHT22;5201;48.776;9.128;2022-12-11T09:31:33;1.70;99.90
10312;DHT22;5201;48.776;9.128;2022-12-11T09:34:02;1.50;99.90
10312;DHT22;5201;48.776;9.128;2022-12-11T09:36:29;1.50;99.90
10312;DHT22;5201;48.776;9.128;2022-12-11T09:38:55;1.60;99.90
10312;DHT22;5201;48.776;9.128;2022-12-11T09:46:15;1.90;99.90
10312;DHT22;5201;48.776;9.128;2022-12-11T09:48:44;1.80;99.90
10312;DHT22;5201;48.776;9.128;2022-12-11T09:51:23;2.00;99.90
10312;DHT22;5201;48.776;9.128;2022-12-11T09:53:51;2.30;99.90
10312;DHT22;5201;48.776;9.128;2022-12-11T09:56:37;2.30;99.90
10312;DHT22;5201;48.776;9.128;2022-12-11T10:07:36;2.80;99.90
10312;DHT22;5201;48.776;9.128;2022-12-11T10:10:22;2.70;99.90
10312;DHT22;5201;48.776;9.128;2022-12-11T10:12:55;2.40;99.90
10312;DHT22;5201;48.776;9.128;2022-12-11T10:15:36;2.50;99.90
10312;DHT22;5201;48.776;9.128;2022-12-11T10:18:10;2.40;99.90
10312;DHT22;5201;48.776;9.128;2022-12-11T10:20:37;2.90;99.90
10312;DHT22;5201;48.776;9.128;2022-12-11T10:23:14;2.20;99.90
10312;DHT22;5201;48.776;9.128;2022-12-11T10:25:45;2.20;99.90
10312;DHT22;5201;48.776;9.128;2022-12-11T10:28:14;2.20;99.90
10312;DHT22;5201;48.776;9.128;2022-12-11T10:30:47;2.30;99.90
10312;DHT22;5201;48.776;9.128;2022-12-11T10:33:25;2.40;99.90
10312;DHT22;5201;48.776;9.128;2022-12-11T10:35:56;2.60;99.90
10312;DHT22;5201;48.776;9.128;2022-12-11T10:38:30;2.60;99.90
10312;DHT22;5201;48.776;9.128;2022-12-11T10:41:36;2.90;99.90
10312;DHT22;5201;48.776;9.128;2022-12-11T10:44:21;2.80;99.90
10312;DHT22;5201;48.776;9.128;2022-12-11T10:49:34;2.80;99.90
10312;DHT22;5201;48.776;9.128;2022-12-11T10:52:00;2.60;99.90
10312;DHT22;5201;48.776;9.128;2022-12-11T10:54:30;2.50;99.90
10312;DHT22;5201;48.776;9.128;2022-12-11T10:56:57;2.20;99.90
10312;DHT22;5201;48.776;9.128;2022-12-11T11:01:57;2.10;99.90
10312;DHT22;5201;48.776;9.128;2022-12-11T11:04:30;1.90;99.90
10312;DHT22;5201;48.776;9.128;2022-12-11T11:07:14;1.80;99.90
10312;DHT22;5201;48.776;9.128;2022-12-11T11:09:41;1.70;99.90
10312;DHT22;5201;48.776;9.128;2022-12-11T11:12:24;1.80;99.90
10312;DHT22;5201;48.776;9.128;2022-12-11T11:15:13;1.70;99.90
10312;DHT22;5201;48.776;9.128;2022-12-11T11:17:51;1.80;99.90
10312;DHT22;5201;48.776;9.128;2022-12-11T11:20:19;2.00;99.90
10312;DHT22;5201;48.776;9.128;2022-12-11T11:22:49;2.10;99.90
10312;DHT22;5201;48.776;9.128;2022-12-11T11:25:21;2.20;99.90
10312;DHT22;5201;48.776;9.128;2022-12-11T11:27:56;2.40;99.90
10312;DHT22;5201;48.776;9.128;2022-12-11T11:30:35;2.50;99.90
10312;DHT22;5201;48.776;9.128;2022-12-11T11:33:03;2.40;99.90
10312;DHT22;5201;48.776;9.128;2022-12-11T11:35:30;2.40;99.90
10312;DHT22;5201;48.776;9.128;2022-12-11T11:38:03;2.50;99.90
10312;DHT22;5201;48.776;9.128;2022-12-11T11:40:36;2.50;99.90
10312;DHT22;5201;48.776;9.128;2022-12-11T11:45:45;2.50;99.90
10312;DHT22;5201;48.776;9.128;2022-12-11T11:48:42;2.60;99.90
10312;DHT22;5201;48.776;9.128;2022-12-11T11:53:48;2.40;99.90
10312;DHT22;5201;48.776;9.128;2022-12-11T11:56:46;2.50;99.90
10312;DHT22;5201;48.776;9.128;2022-12-11T12:01:47;2.30;99.90
10312;DHT22;5201;48.776;9.128;2022-12-11T12:04:15;2.40;99.90
10312;DHT22;5201;48.776;9.128;2022-12-11T12:12:38;2.10;99.90
10312;DHT22;5201;48.776;9.128;2022-12-11T12:29:00;1.60;99.90
10312;DHT22;5201;48.776;9.128;2022-12-11T12:34:32;2.10;99.90
10312;DHT22;5201;48.776;9.128;2022-12-11T12:39:55;2.30;99.90
10312;DHT22;5201;48.776;9.128;2022-12-11T12:45:29;2.30;99.90
10312;DHT22;5201;48.776;9.128;2022-12-11T12:47:57;2.50;99.90
10312;DHT22;5201;48.776;9.128;2022-12-11T12:50:25;2.40;99.90
10312;DHT22;5201;48.776;9.128;2022-12-11T12:52:54;4.10;99.90
10312;DHT22;5201;48.776;9.128;2022-12-11T12:57:54;2.40;99.90
10312;DHT22;5201;48.776;9.128;2022-12-11T13:02:55;2.10;99.90
10312;DHT22;5201;48.776;9.128;2022-12-11T13:05:23;1.80;99.90
10312;DHT22;5201;48.776;9.128;2022-12-11T13:07:59;1.80;99.90
10312;DHT22;5201;48.776;9.128;2022-12-11T13:10:34;2.00;99.90
10312;DHT22;5201;48.776;9.128;2022-12-11T13:13:02;1.70;99.90
10312;DHT22;5201;48.776;9.128;2022-12-11T13:15:40;1.70;99.90
10312;DHT22;5201;48.776;9.128;2022-12-11T13:18:47;1.80;99.90
10312;DHT22;5201;48.776;9.128;2022-12-11T13:21:24;1.60;99.90
10312;DHT22;5201;48.776;9.128;2022-12-11T13:23:50;1.20;99.90
10312;DHT22;5201;48.776;9.128;2022-12-11T13:26:30;1.30;99.90
10312;DHT22;5201;48.776;9.128;2022-12-11T13:28:56;1.20;99.90
10312;DHT22;5201;48.776;9.128;2022-12-11T13:34:16;1.40;99.90
10312;DHT22;5201;48.776;9.128;2022-12-11T13:36:51;1.60;99.90
10312;DHT22;5201;48.776;9.128;2022-12-11T13:39:26;1.10;99.90
10312;DHT22;5201;48.776;9.128;2022-12-11T13:42:07;0.90;99.90
10312;DHT22;5201;48.776;9.128;2022-12-11T13:44:46;1.10;99.90
10312;DHT22;5201;48.776;9.128;2022-12-11T13:47:15;1.00;99.90
10312;DHT22;5201;48.776;9.128;2022-12-11T13:49:44;1.00;99.90
10312;DHT22;5201;48.776;9.128;2022-12-11T13:52:21;1.20;99.90
10312;DHT22;5201;48.776;9.128;2022-12-11T13:54:54;0.90;99.90
10312;DHT22;5201;48.776;9.128;2022-12-11T13:57:22;1.50;99.90
10312;DHT22;5201;48.776;9.128;2022-12-11T13:59:55;0.70;99.90
10312;DHT22;5201;48.776;9.128;2022-12-11T14:02:36;0.60;99.90
10312;DHT22;5201;48.776;9.128;2022-12-11T14:05:08;0.70;99.90
10312;DHT22;5201;48.776;9.128;2022-12-11T14:07:40;0.70;99.90
10312;DHT22;5201;48.776;9.128;2022-12-11T14:10:27;0.60;99.90
10312;DHT22;5201;48.776;9.128;2022-12-11T14:13:01;0.30;99.90
10312;DHT22;5201;48.776;9.128;2022-12-11T14:15:29;0.50;99.90
10312;DHT22;5201;48.776;9.128;2022-12-11T14:17:59;0.40;99.90
10312;DHT22;5201;48.776;9.128;2022-12-11T14:20:27;0.40;99.90
10312;DHT22;5201;48.776;9.128;2022-12-11T14:23:19;0.50;99.90
10312;DHT22;5201;48.776;9.128;2022-12-11T14:28:41;0.30;99.90
10312;DHT22;5201;48.776;9.128;2022-12-11T14:31:08;-1.60;99.90
10312;DHT22;5201;48.776;9.128;2022-12-11T14:33:40;-0.30;99.90
10312;DHT22;5201;48.776;9.128;2022-12-11T14:36:08;-0.40;99.90
10312;DHT22;5201;48.776;9.128;2022-12-11T14:38:38;-0.40;99.90
10312;DHT22;5201;48.776;9.128;2022-12-11T14:41:12;-0.10;99.90
10312;DHT22;5201;48.776;9.128;2022-12-11T14:43:53;0.00;99.90
10312;DHT22;5201;48.776;9.128;2022-12-11T14:46:35;0.30;99.90
10312;DHT22;5201;48.776;9.128;2022-12-11T14:49:13;0.60;99.90
10312;DHT22;5201;48.776;9.128;2022-12-11T14:51:40;0.50;99.90
10312;DHT22;5201;48.776;9.128;2022-12-11T14:56:51;0.70;99.90
10312;DHT22;5201;48.776;9.128;2022-12-11T14:59:21;0.80;99.90
10312;DHT22;5201;48.776;9.128;2022-12-11T15:02:00;0.60;99.90
10312;DHT22;5201;48.776;9.128;2022-12-11T15:04:31;0.70;99.90
10312;DHT22;5201;48.776;9.128;2022-12-11T15:06:58;1.00;99.90
10312;DHT22;5201;48.776;9.128;2022-12-11T15:09:35;1.10;99.90
10312;DHT22;5201;48.776;9.128;2022-12-11T15:12:13;1.20;99.90
10312;DHT22;5201;48.776;9.128;2022-12-11T15:15:02;0.70;99.90
10312;DHT22;5201;48.776;9.128;2022-12-11T15:17:28;0.20;99.90
10312;DHT22;5201;48.776;9.128;2022-12-11T15:20:25;0.40;99.90
10312;DHT22;5201;48.776;9.128;2022-12-11T15:22:51;0.80;99.90
10312;DHT22;5201;48.776;9.128;2022-12-11T15:25:25;0.70;99.90
10312;DHT22;5201;48.776;9.128;2022-12-11T15:27:58;1.10;99.90
10312;DHT22;5201;48.776;9.128;2022-12-11T15:30:28;1.50;99.90
10312;DHT22;5201;48.776;9.128;2022-12-11T15:33:20;1.80;99.90
10312;DHT22;5201;48.776;9.128;2022-12-11T15:36:03;1.60;99.90
10312;DHT22;5201;48.776;9.128;2022-12-11T15:38:36;1.50;99.90
10312;DHT22;5201;48.776;9.128;2022-12-11T15:41:05;1.30;99.90
10312;DHT22;5201;48.776;9.128;2022-12-11T15:43:36;1.50;99.90
10312;DHT22;5201;48.776;9.128;2022-12-11T15:46:03;1.70;99.90
10312;DHT22;5201;48.776;9.128;2022-12-11T15:48:29;2.00;99.90
10312;DHT22;5201;48.776;9.128;2022-12-11T15:50:55;1.30;99.90
10312;DHT22;5201;48.776;9.128;2022-12-11T15:53:20;2.50;99.90
10312;DHT22;5201;48.776;9.128;2022-12-11T15:55:47;1.80;99.90
10312;DHT22;5201;48.776;9.128;2022-12-11T15:58:16;1.80;99.90
10312;DHT22;5201;48.776;9.128;2022-12-11T16:00:42;2.10;99.90
10312;DHT22;5201;48.776;9.128;2022-12-11T16:03:11;2.40;99.90
10312;DHT22;5201;48.776;9.128;2022-12-11T16:05:37;2.40;99.90
10312;DHT22;5201;48.776;9.128;2022-12-11T16:08:03;2.40;99.90
10312;DHT22;5201;48.776;9.128;2022-12-11T16:10:29;2.40;99.90
10312;DHT22;5201;48.776;9.128;2022-12-11T16:12:55;2.40;99.90
10312;DHT22;5201;48.776;9.128;2022-12-11T16:15:24;2.30;99.90
10312;DHT22;5201;48.776;9.128;2022-12-11T16:17:58;2.20;99.90
10312;DHT22;5201;48.776;9.128;2022-12-11T16:20:24;2.00;99.90
10312;DHT22;5201;48.776;9.128;2022-12-11T16:22:50;1.90;99.90
10312;DHT22;5201;48.776;9.128;2022-12-11T16:25:15;1.70;99.90
10312;DHT22;5201;48.776;9.128;2022-12-11T16:27:41;1.50;99.90
10312;DHT22;5201;48.776;9.128;2022-12-11T16:30:07;1.60;99.90
10312;DHT22;5201;48.776;9.128;2022-12-11T16:32:35;1.70;99.90
10312;DHT22;5201;48.776;9.128;2022-12-11T16:35:00;1.70;99.90
10312;DHT22;5201;48.776;9.128;2022-12-11T16:37:26;1.70;99.90
10312;DHT22;5201;48.776;9.128;2022-12-11T16:39:52;1.60;99.90
10312;DHT22;5201;48.776;9.128;2022-12-11T16:42:17;1.70;99.90
10312;DHT22;5201;48.776;9.128;2022-12-11T16:44:43;2.00;99.90
10312;DHT22;5201;48.776;9.128;2022-12-11T16:47:09;2.10;99.90
10312;DHT22;5201;48.776;9.128;2022-12-11T16:49:34;2.20;99.90
10312;DHT22;5201;48.776;9.128;2022-12-11T16:52:00;2.30;99.90
10312;DHT22;5201;48.776;9.128;2022-12-11T16:54:25;2.20;99.90
10312;DHT22;5201;48.776;9.128;2022-12-11T16:56:51;2.10;99.90
10312;DHT22;5201;48.776;9.128;2022-12-11T16:59:17;2.10;99.90
10312;DHT22;5201;48.776;9.128;2022-12-11T17:01:42;2.20;99.90
10312;DHT22;5201;48.776;9.128;2022-12-11T17:04:09;2.20;99.90
10312;DHT22;5201;48.776;9.128;2022-12-11T17:06:34;1.90;99.90
10312;DHT22;5201;48.776;9.128;2022-12-11T17:09:00;1.80;99.90
10312;DHT22;5201;48.776;9.128;2022-12-11T17:11:26;2.10;99.90
10312;DHT22;5201;48.776;9.128;2022-12-11T17:13:53;2.00;99.90
10312;DHT22;5201;48.776;9.128;2022-12-11T17:16:19;1.80;99.90
10312;DHT22;5201;48.776;9.128;2022-12-11T17:18:46;1.80;99.90
10312;DHT22;5201;48.776;9.128;2022-12-11T17:21:16;2.10;99.90
10312;DHT22;5201;48.776;9.128;2022-12-11T17:23:42;1.90;99.90
10312;DHT22;5201;48.776;9.128;2022-12-11T17:26:08;1.40;99.90
10312;DHT22;5201;48.776;9.128;2022-12-11T17:28:34;1.70;99.90
10312;DHT22;5201;48.776;9.128;2022-12-11T17:31:07;1.30;99.90
10312;DHT22;5201;48.776;9.128;2022-12-11T17:33:33;1.10;99.90